Historique des mesures à Cassis (13260), France
Quotidien Résumé Fevrier 26, 2018 Unités:  Métrique/US    US   Métrique
« Précédent (Jour)
Suivant (Jour) »
Quotidien Hebdomadaire Mensuel Annuel Période au choix
  Maximum: Minimum: Moyenne:
Température: 32 °F /  TemperatureC °C 33.8 °F /  1.0 °C 39.6 °F /  4.2 °C
Point de rosée: 32 °F /  DewpointC °C 18.3 °F /  -7.6 °C 27.3 °F /  -2.6 °C
Humidité: Humidity % 43 % 59 %
Vitesse du vent: WindSpeedKMH mph /  0 km/h - 5.4 mph /  8.7 km/h
Rafales: WindSpeedGustKMH mph /  0 km/h - -
Vent:- - West
Pression: 0 in /  PressurehPa hPa 29.6 in /  1001.6 hPa -
Précipitations: 25.4 in /  1.0 mm    
Historical Graphs
 
 
Mesures pour : Fevrier 26, 2018
Heure Temperature Point de rosée Pression Vent Vitesse du vent Rafales Humidité Pluie (par heure) Conditions
32 °F /  TemperatureC °C 32 °F /  DewpointC °C 0 in /  PressurehPa hPa Calm     Humidity % 0 in /  HourlyPrecipMM mm SoftwareType W/m2
00:12 40.3 °F /  4.6 °C 32.4 °F /  0.2 °C 29.7 in /  1004.6 hPa WNW 22.7 mph /  36.5 km/h 29.4 mph /  47.3 km/h 73 % 0 in /  0.0 mm open2300-1.11 W/m2
01:12 37.9 °F /  3.3 °C 30.7 °F /  -0.7 °C 29.7 in /  1005.3 hPa NNW 18.0 mph /  29 km/h 18.3 mph /  29.5 km/h 75 % 12.7 in /  0.5 mm open2300-1.11 W/m2
02:12 37.9 °F /  3.3 °C 30.9 °F /  -0.6 °C 29.7 in /  1005.6 hPa NW 4.7 mph /  7.6 km/h 7.9 mph /  12.7 km/h 76 % 0 in /  0.0 mm open2300-1.11 W/m2
03:12 37.6 °F /  3.1 °C 30.4 °F /  -0.9 °C 29.7 in /  1005.3 hPa Calm   3.5 mph /  5.6 km/h 75 % 12.7 in /  0.5 mm open2300-1.11 W/m2
04:12 38.5 °F /  3.6 °C 31.8 °F /  -0.1 °C 29.7 in /  1005.3 hPa Calm     77 % 0 in /  0.0 mm open2300-1.11 W/m2
05:12 37.6 °F /  3.1 °C 29.5 °F /  -1.4 °C 29.7 in /  1004.6 hPa NW 5.0 mph /  8 km/h 7.6 mph /  12.2 km/h 72 % 0 in /  0.0 mm open2300-1.11 W/m2
06:12 36.7 °F /  2.6 °C 28.2 °F /  -2.1 °C 29.7 in /  1005.0 hPa NW 8.7 mph /  14 km/h 8.7 mph /  14 km/h 71 % 0 in /  0.0 mm open2300-1.11 W/m2
07:12 34.9 °F /  1.6 °C 25.7 °F /  -3.5 °C 29.6 in /  1003.9 hPa NNW 1.4 mph /  2.3 km/h 7.9 mph /  12.7 km/h 69 % 0 in /  0.0 mm open2300-1.11 W/m2
08:12 33.8 °F /  1.0 °C 24.3 °F /  -4.3 °C 29.6 in /  1003.9 hPa NNE 4.0 mph /  6.4 km/h 14.3 mph /  23 km/h 68 % 0 in /  0.0 mm open2300-1.11 W/m2
09:12 36.7 °F /  2.6 °C 26.8 °F /  -2.9 °C 29.6 in /  1003.6 hPa West 9.7 mph /  15.6 km/h 9.7 mph /  15.6 km/h 67 % 0 in /  0.0 mm open2300-1.11 W/m2
11:12 44.4 °F /  6.9 °C 32.2 °F /  0.1 °C 29.6 in /  1002.9 hPa Calm   4.7 mph /  7.6 km/h 62 % 0 in /  0.0 mm open2300-1.11 W/m2
12:12 46.8 °F /  8.2 °C 34 °F /  1.1 °C 29.6 in /  1002.9 hPa Calm   2.6 mph /  4.2 km/h 61 % 0 in /  0.0 mm open2300-1.11 W/m2
13:12 47.3 °F /  8.5 °C 34.9 °F /  1.6 °C 29.6 in /  1002.6 hPa SE 9.0 mph /  14.5 km/h 9.0 mph /  14.5 km/h 62 % 0 in /  0.0 mm open2300-1.11 W/m2
14:12 47.3 °F /  8.5 °C 34.9 °F /  1.6 °C 29.6 in /  1002.3 hPa Calm     62 % 0 in /  0.0 mm open2300-1.11 W/m2
15:12 45.3 °F /  7.4 °C 27.9 °F /  -2.3 °C 29.6 in /  1001.6 hPa NW 12.6 mph /  20.3 km/h 19.1 mph /  30.7 km/h 50 % 0 in /  0.0 mm open2300-1.11 W/m2
16:12 42.6 °F /  5.9 °C 21.6 °F /  -5.8 °C 29.6 in /  1001.6 hPa WNW 10.5 mph /  16.9 km/h 18.0 mph /  29 km/h 43 % 0 in /  0.0 mm open2300-1.11 W/m2
17:12 40.1 °F /  4.5 °C 19.2 °F /  -7.1 °C 29.6 in /  1001.6 hPa WNW 10.1 mph /  16.3 km/h 14.3 mph /  23 km/h 43 % 0 in /  0.0 mm open2300-1.11 W/m2
18:12 38.5 °F /  3.6 °C 18.3 °F /  -7.6 °C 29.6 in /  1002.3 hPa NNW 2.6 mph /  4.2 km/h 8.7 mph /  14 km/h 44 % 0 in /  0.0 mm open2300-1.11 W/m2
19:12 38.5 °F /  3.6 °C 18.3 °F /  -7.6 °C 29.6 in /  1002.6 hPa North 4.0 mph /  6.4 km/h 4.3 mph /  6.9 km/h 44 % 0 in /  0.0 mm open2300-1.11 W/m2
20:12 38.8 °F /  3.8 °C 19.8 °F /  -6.8 °C 29.6 in /  1002.9 hPa Calm     46 % 0 in /  0.0 mm open2300-1.11 W/m2
21:12 39 °F /  3.9 °C 25.3 °F /  -3.7 °C 29.6 in /  1003.3 hPa NW 2.1 mph /  3.4 km/h 2.1 mph /  3.4 km/h 58 % 0 in /  0.0 mm open2300-1.11 W/m2
23:12 37.4 °F /  3.0 °C 21.4 °F /  -5.9 °C 29.6 in /  1003.9 hPa Calm     52 % 0 in /  0.0 mm open2300-1.11 W/m2
Observations météo à CASSIS
WU-History script by Weather Underground - 1 mb